createdAt,value
2022-09-06T00:00:07.347Z,18.10
2022-09-06T00:02:35.207Z,18.00
2022-09-06T00:05:02.287Z,18.00
2022-09-06T00:07:29.037Z,18.00
2022-09-06T00:09:57.280Z,18.00
2022-09-06T00:12:25.375Z,18.00
2022-09-06T00:14:52.206Z,17.90
2022-09-06T00:17:19.455Z,18.00
2022-09-06T00:19:46.315Z,17.90
2022-09-06T00:22:13.053Z,17.90
2022-09-06T00:24:39.849Z,17.90
2022-09-06T00:27:07.587Z,17.90
2022-09-06T00:29:34.411Z,17.80
2022-09-06T00:32:01.310Z,17.80
2022-09-06T00:34:28.442Z,17.80
2022-09-06T00:36:55.474Z,17.80
2022-09-06T00:39:22.280Z,17.80
2022-09-06T00:41:49.337Z,17.70
2022-09-06T00:44:16.114Z,17.70
2022-09-06T00:46:46.142Z,17.60
2022-09-06T00:49:24.208Z,17.60
2022-09-06T00:51:58.340Z,17.60
2022-09-06T00:54:25.896Z,17.60
2022-09-06T00:56:52.910Z,17.50
2022-09-06T00:59:19.751Z,17.50
2022-09-06T01:01:46.782Z,17.50
2022-09-06T01:04:13.803Z,17.50
2022-09-06T01:07:06.450Z,17.50
2022-09-06T01:09:56.964Z,17.40
2022-09-06T01:12:28.082Z,17.40
2022-09-06T01:15:09.859Z,17.40
2022-09-06T01:17:59.991Z,17.40
2022-09-06T01:20:52.631Z,17.40
2022-09-06T01:23:34.369Z,17.40
2022-09-06T01:26:29.281Z,17.30
2022-09-06T01:28:56.360Z,17.30
2022-09-06T01:31:38.195Z,17.30
2022-09-06T01:34:14.876Z,17.30
2022-09-06T01:37:13.460Z,17.30
2022-09-06T01:39:41.977Z,17.30
2022-09-06T01:42:16.586Z,17.20
2022-09-06T01:44:48.229Z,17.20
2022-09-06T01:47:14.935Z,17.20
2022-09-06T01:49:56.704Z,17.10
2022-09-06T01:52:42.424Z,17.10
2022-09-06T01:55:27.848Z,17.00
2022-09-06T01:57:57.500Z,17.10
2022-09-06T02:00:25.324Z,17.10
2022-09-06T02:03:14.058Z,17.10
2022-09-06T02:05:51.055Z,17.00
2022-09-06T02:08:24.879Z,17.00
2022-09-06T02:11:02.337Z,17.00
2022-09-06T02:13:45.419Z,17.00
2022-09-06T02:16:16.187Z,16.90
2022-09-06T02:19:18.061Z,16.80
2022-09-06T02:21:47.470Z,16.80
2022-09-06T02:24:23.015Z,16.90
2022-09-06T02:26:50.562Z,16.90
2022-09-06T02:29:18.567Z,16.90
2022-09-06T02:31:56.945Z,16.90
2022-09-06T02:34:23.710Z,16.90
2022-09-06T02:36:50.630Z,16.80
2022-09-06T02:39:17.483Z,16.80
2022-09-06T02:41:46.255Z,16.80
2022-09-06T02:44:13.015Z,16.80
2022-09-06T02:46:39.961Z,16.80
2022-09-06T02:49:06.895Z,16.80
2022-09-06T02:51:38.569Z,16.70
2022-09-06T02:54:06.228Z,16.70
2022-09-06T02:56:33.799Z,16.80
2022-09-06T02:59:00.752Z,16.80
2022-09-06T03:01:27.912Z,16.80
2022-09-06T03:03:54.677Z,16.80
2022-09-06T03:06:21.467Z,16.70
2022-09-06T03:08:48.384Z,16.60
2022-09-06T03:11:15.390Z,16.60
2022-09-06T03:13:42.194Z,16.50
2022-09-06T03:16:09.104Z,16.50
2022-09-06T03:18:35.865Z,16.50
2022-09-06T03:21:03.206Z,16.50
2022-09-06T03:23:30.225Z,16.50
2022-09-06T03:25:57.228Z,16.50
2022-09-06T03:28:24.462Z,16.50
2022-09-06T03:30:52.169Z,16.50
2022-09-06T03:33:20.432Z,16.40
2022-09-06T03:35:56.424Z,16.50
2022-09-06T03:38:23.939Z,16.50
2022-09-06T03:40:52.777Z,16.40
2022-09-06T03:43:20.936Z,16.40
2022-09-06T03:45:57.709Z,16.40
2022-09-06T03:48:27.922Z,16.30
2022-09-06T03:50:57.149Z,16.40
2022-09-06T03:53:25.608Z,16.40
2022-09-06T03:55:54.545Z,16.30
2022-09-06T03:58:23.097Z,16.30
2022-09-06T04:00:59.313Z,16.20
2022-09-06T04:03:26.103Z,16.20
2022-09-06T04:05:52.834Z,16.20
2022-09-06T04:08:19.686Z,16.20
2022-09-06T04:10:50.962Z,16.10
2022-09-06T04:20:43.279Z,16.10
2022-09-06T04:23:10.036Z,16.20
2022-09-06T04:25:36.942Z,16.20
2022-09-06T04:28:03.771Z,16.20
2022-09-06T04:30:30.579Z,16.20
2022-09-06T04:32:57.415Z,16.20
2022-09-06T04:35:24.235Z,16.20
2022-09-06T04:37:51.013Z,16.20
2022-09-06T04:40:17.849Z,16.20
2022-09-06T04:42:44.577Z,16.20
2022-09-06T04:45:12.021Z,16.10
2022-09-06T04:47:38.771Z,16.10
2022-09-06T04:50:06.376Z,16.20
2022-09-06T04:52:33.112Z,16.20
2022-09-06T04:54:59.835Z,16.20
2022-09-06T04:57:26.684Z,16.20
2022-09-06T04:59:53.568Z,16.20
2022-09-06T05:02:20.364Z,16.30
2022-09-06T05:04:47.237Z,16.30
2022-09-06T05:07:13.975Z,16.40
2022-09-06T05:09:40.697Z,16.40
2022-09-06T05:12:07.907Z,16.40
2022-09-06T05:14:34.921Z,16.40
2022-09-06T05:17:01.732Z,16.40
2022-09-06T05:19:28.461Z,16.40
2022-09-06T05:21:55.365Z,16.50
2022-09-06T05:24:22.173Z,16.50
2022-09-06T05:26:48.931Z,16.50
2022-09-06T05:29:15.690Z,16.60
2022-09-06T05:31:42.646Z,16.70
2022-09-06T05:34:10.506Z,16.80
2022-09-06T05:36:38.751Z,16.80
2022-09-06T05:39:05.534Z,16.90
2022-09-06T05:41:33.740Z,17.00
2022-09-06T05:44:00.526Z,17.00
2022-09-06T05:46:27.259Z,17.10
2022-09-06T05:48:56.058Z,17.10
2022-09-06T05:51:22.874Z,17.10
2022-09-06T05:53:49.847Z,17.20
2022-09-06T05:56:17.323Z,17.30
2022-09-06T05:58:44.262Z,17.30
2022-09-06T06:01:30.159Z,17.30
2022-09-06T06:04:00.321Z,17.40
2022-09-06T06:06:29.575Z,17.50
2022-09-06T06:08:56.545Z,17.60
2022-09-06T06:11:24.918Z,17.60
2022-09-06T06:13:52.369Z,17.70
2022-09-06T06:16:21.004Z,17.70
2022-09-06T06:18:51.926Z,17.80
2022-09-06T06:21:23.764Z,17.80
2022-09-06T06:23:53.047Z,17.90
2022-09-06T06:26:20.424Z,18.00
2022-09-06T06:28:47.241Z,18.10
2022-09-06T06:31:15.313Z,18.20
2022-09-06T06:33:42.611Z,18.30
2022-09-06T06:36:15.158Z,18.30
2022-09-06T06:38:43.766Z,18.40
2022-09-06T06:41:13.313Z,18.50
2022-09-06T06:43:40.528Z,18.60
2022-09-06T06:46:09.577Z,18.60
2022-09-06T06:48:37.488Z,18.80
2022-09-06T06:51:04.301Z,18.90
2022-09-06T06:53:31.087Z,19.00
2022-09-06T06:55:57.854Z,19.10
2022-09-06T06:58:24.646Z,19.10
2022-09-06T07:00:51.733Z,19.20
2022-09-06T07:03:18.895Z,19.20
2022-09-06T07:08:34.516Z,19.30
2022-09-06T07:11:02.114Z,19.50
2022-09-06T07:13:28.930Z,19.70
2022-09-06T07:16:08.897Z,19.90
2022-09-06T07:18:37.714Z,20.00
2022-09-06T07:24:07.648Z,20.30
2022-09-06T07:26:36.616Z,20.40
2022-09-06T07:29:04.842Z,20.60
2022-09-06T07:34:20.522Z,21.00
2022-09-06T07:36:48.229Z,21.70
2022-09-06T07:39:15.030Z,23.40
2022-09-06T07:46:37.500Z,24.60
2022-09-06T07:51:32.766Z,30.20
2022-09-06T07:59:14.318Z,31.90
2022-09-06T08:04:10.462Z,32.20
2022-09-06T08:09:26.047Z,33.30
2022-09-06T08:19:14.755Z,33.50
2022-09-06T08:21:41.694Z,35.40
2022-09-06T09:19:10.180Z,38.30
2022-09-06T09:21:40.010Z,38.30
2022-09-06T09:26:51.972Z,38.20
2022-09-06T09:29:22.762Z,38.10
2022-09-06T09:31:56.199Z,38.10
2022-09-06T09:34:33.846Z,38.20
2022-09-06T09:40:32.016Z,38.90
2022-09-06T09:43:15.214Z,39.10
2022-09-06T09:45:43.318Z,38.90
2022-09-06T09:48:28.298Z,38.70
2022-09-06T09:50:56.585Z,38.70
2022-09-06T09:53:24.318Z,38.50
2022-09-06T09:55:58.448Z,38.50
2022-09-06T09:58:33.421Z,38.20
2022-09-06T10:01:30.642Z,38.20
2022-09-06T10:07:13.084Z,38.40
2022-09-06T10:09:43.803Z,38.20
2022-09-06T10:12:18.018Z,38.00
2022-09-06T10:14:48.580Z,37.90
2022-09-06T10:17:20.820Z,37.50
2022-09-06T10:19:48.734Z,37.30
2022-09-06T10:22:21.396Z,36.90
2022-09-06T10:24:58.965Z,36.50
2022-09-06T10:27:28.987Z,35.80
2022-09-06T10:38:01.734Z,34.90
2022-09-06T11:16:53.864Z,31.40
2022-09-06T11:19:47.484Z,29.00
2022-09-06T11:32:38.834Z,28.80
2022-09-06T11:35:20.412Z,28.50
2022-09-06T11:37:51.508Z,28.40
2022-09-06T11:48:26.273Z,28.30
2022-09-06T11:51:01.950Z,28.10
2022-09-06T11:53:36.330Z,28.10
2022-09-06T11:56:03.200Z,28.20
2022-09-06T11:58:41.875Z,28.20
2022-09-06T12:01:18.771Z,28.20
2022-09-06T12:04:05.152Z,28.20
2022-09-06T12:06:43.744Z,28.00
2022-09-06T12:09:33.346Z,27.80
2022-09-06T12:12:01.294Z,28.00
2022-09-06T12:14:40.999Z,28.00
2022-09-06T12:17:08.797Z,28.00
2022-09-06T12:19:47.407Z,27.90
2022-09-06T12:22:29.476Z,27.90
2022-09-06T12:25:34.198Z,27.80
2022-09-06T12:28:04.055Z,27.80
2022-09-06T12:30:46.138Z,27.80
2022-09-06T12:33:26.037Z,27.80
2022-09-06T12:35:56.421Z,27.90
2022-09-06T12:38:25.447Z,27.90
2022-09-06T12:40:58.254Z,27.90
2022-09-06T12:43:25.980Z,27.80
2022-09-06T14:06:25.171Z,26.80
2022-09-06T14:09:08.581Z,26.70
2022-09-06T14:11:36.111Z,26.70
2022-09-06T14:14:03.008Z,26.60
2022-09-06T14:16:30.083Z,26.50
2022-09-06T14:18:57.002Z,26.50
2022-09-06T14:21:23.998Z,26.50
2022-09-06T14:23:52.284Z,26.50
2022-09-06T14:26:21.001Z,26.50
2022-09-06T14:28:48.058Z,26.50
2022-09-06T14:31:20.522Z,26.50
2022-09-06T14:33:47.697Z,26.40
2022-09-06T14:36:20.228Z,26.40
2022-09-06T14:38:47.718Z,26.40
2022-09-06T14:41:16.069Z,26.40
2022-09-06T14:43:44.169Z,26.30
2022-09-06T14:46:14.198Z,26.20
2022-09-06T14:48:42.668Z,26.10
2022-09-06T14:51:21.838Z,26.10
2022-09-06T14:53:51.951Z,26.00
2022-09-06T14:56:19.966Z,25.90
2022-09-06T15:03:48.464Z,25.80
2022-09-06T15:06:16.347Z,25.60
2022-09-06T15:08:43.344Z,25.60
2022-09-06T15:11:12.514Z,25.50
2022-09-06T15:13:40.404Z,25.50
2022-09-06T15:16:09.237Z,25.40
2022-09-06T15:18:36.506Z,25.40
2022-09-06T15:21:14.500Z,25.30
2022-09-06T15:23:43.015Z,25.30
2022-09-06T15:26:12.063Z,25.30
2022-09-06T15:28:40.470Z,25.20
2022-09-06T15:31:08.585Z,25.10
2022-09-06T15:33:37.186Z,25.10
2022-09-06T15:36:08.078Z,25.00
2022-09-06T15:41:27.078Z,24.90
2022-09-06T15:43:56.777Z,24.80
2022-09-06T15:46:35.686Z,24.80
2022-09-06T15:56:28.893Z,25.00
2022-09-06T15:58:55.738Z,24.60
2022-09-06T16:01:25.245Z,24.50
2022-09-06T16:03:54.809Z,24.50
2022-09-06T16:08:56.056Z,24.40
2022-09-06T16:11:22.795Z,24.40
2022-09-06T16:13:49.572Z,24.40
2022-09-06T16:16:17.747Z,24.40
2022-09-06T16:18:48.664Z,24.40
2022-09-06T16:21:18.843Z,24.40
2022-09-06T16:23:59.273Z,24.30
2022-09-06T16:26:28.964Z,24.30
2022-09-06T16:28:55.978Z,24.30
2022-09-06T16:31:23.699Z,24.20
2022-09-06T16:33:51.057Z,24.20
2022-09-06T16:36:18.851Z,24.20
2022-09-06T16:38:46.610Z,24.20
2022-09-06T16:41:26.605Z,24.20
2022-09-06T16:43:54.199Z,24.20
2022-09-06T16:46:25.665Z,24.20
2022-09-06T16:48:53.616Z,24.20
2022-09-06T16:51:22.274Z,24.00
2022-09-06T16:53:49.588Z,23.90
2022-09-06T16:56:18.933Z,23.80
2022-09-06T16:58:51.388Z,23.80
2022-09-06T17:01:18.471Z,23.70
2022-09-06T17:03:45.636Z,23.60
2022-09-06T17:06:13.154Z,23.60
2022-09-06T17:08:40.076Z,23.50
2022-09-06T17:11:14.700Z,23.40
2022-09-06T17:13:42.624Z,23.40
2022-09-06T17:16:27.922Z,23.30
2022-09-06T17:18:54.923Z,23.40
2022-09-06T17:21:22.979Z,23.30
2022-09-06T17:23:50.622Z,23.20
2022-09-06T17:26:22.133Z,23.10
2022-09-06T17:28:50.018Z,23.00
2022-09-06T17:31:21.114Z,23.00
2022-09-06T17:33:52.840Z,22.90
2022-09-06T17:36:25.271Z,22.80
2022-09-06T17:38:53.685Z,22.80
2022-09-06T17:41:20.864Z,22.70
2022-09-06T17:43:48.566Z,22.70
2022-09-06T17:46:15.407Z,22.60
2022-09-06T17:48:43.508Z,22.50
2022-09-06T17:51:11.594Z,22.50
2022-09-06T17:53:38.916Z,22.50
2022-09-06T17:56:08.104Z,22.40
2022-09-06T17:58:36.633Z,22.40
2022-09-06T18:01:23.624Z,22.30
2022-09-06T18:03:50.594Z,22.30
2022-09-06T18:06:25.453Z,22.30
2022-09-06T18:08:54.372Z,22.20
2022-09-06T18:11:32.982Z,22.20
2022-09-06T18:14:11.840Z,22.20
2022-09-06T18:16:40.455Z,22.10
2022-09-06T18:19:08.988Z,22.10
2022-09-06T18:21:38.788Z,22.10
2022-09-06T18:49:14.197Z,22.00
2022-09-06T18:51:41.192Z,21.50
2022-09-06T18:54:08.316Z,21.40
2022-09-06T18:56:35.188Z,21.40
2022-09-06T18:59:02.217Z,21.30
2022-09-06T19:01:30.415Z,21.30
2022-09-06T19:03:58.500Z,21.20
2022-09-06T19:06:27.399Z,21.20
2022-09-06T19:08:55.155Z,21.10
2022-09-06T19:11:22.353Z,21.10
2022-09-06T19:13:54.749Z,21.00
2022-09-06T19:16:23.353Z,21.00
2022-09-06T19:18:50.981Z,21.00
2022-09-06T19:21:22.143Z,20.90
2022-09-06T19:23:57.450Z,20.90
2022-09-06T19:26:25.616Z,20.80
2022-09-06T19:28:58.526Z,20.80
2022-09-06T19:31:27.397Z,20.70
2022-09-06T19:33:55.558Z,20.60
2022-09-06T19:36:24.068Z,20.60
2022-09-06T19:39:04.121Z,20.50
